Time;durP1;ratioP1;P1;durP2;ratioP2;P2;SDS_P1;SDS_P2;PMS_P1;PMS_P2;Temp;Humidity;BMP_temperature;BMP_pressure;BME280_temperature;BME280_humidity;BME280_pressure;Samples;Min_cycle;Max_cycle;Signal;HPM_P1;HPM_P2
2021/04/23 00:00:52;;;;;;;5.65;2.95;;;;;;;1.04;45.94629;95804.06;;;;
2021/04/23 00:01:56;;;;;;;5.65;2.95;;;;;;;1.04;45.94629;95804.06;;;;
2021/04/23 00:02:56;;;;;;;5.65;2.95;;;;;;;1.04;45.94629;95804.06;;;;
2021/04/23 00:04:00;;;;;;;5.65;2.95;;;;;;;1.04;45.94629;95804.06;;;;
2021/04/23 00:05:03;;;;;;;5.65;2.95;;;;;;;1.04;45.94629;95804.06;;;;
2021/04/23 00:06:05;;;;;;;5.65;2.95;;;;;;;1.04;45.94629;95804.06;;;;
2021/04/23 00:07:11;;;;;;;5.65;2.95;;;;;;;1.04;45.94629;95804.06;;;;
2021/04/23 00:08:12;;;;;;;5.65;2.95;;;;;;;1.04;45.94629;95804.06;;;;
2021/04/23 00:09:14;;;;;;;6.799999;3.4;;;;;;;0.93;46.19824;95806.61;;;;
2021/04/23 00:10:18;;;;;;;6.799999;3.4;;;;;;;0.93;46.19824;95806.61;;;;
2021/04/23 00:11:21;;;;;;;6.799999;3.4;;;;;;;0.93;46.19824;95806.61;;;;
2021/04/23 00:12:26;;;;;;;6.799999;3.4;;;;;;;0.93;46.19824;95806.61;;;;
2021/04/23 00:13:27;;;;;;;6.799999;3.4;;;;;;;0.93;46.19824;95806.61;;;;
2021/04/23 00:14:28;;;;;;;6.799999;3.4;;;;;;;0.93;46.19824;95806.61;;;;
2021/04/23 00:15:34;;;;;;;6.799999;3.4;;;;;;;0.93;46.19824;95806.61;;;;
2021/04/23 00:16:35;;;;;;;6.799999;3.4;;;;;;;0.93;46.19824;95806.61;;;;
2021/04/23 00:17:36;;;;;;;6.799999;3.4;;;;;;;0.93;46.19824;95806.61;;;;
2021/04/23 00:18:37;;;;;;;6.799999;3.4;;;;;;;0.93;46.19824;95806.61;;;;
2021/04/23 00:19:38;;;;;;;6.799999;3.4;;;;;;;0.93;46.19824;95806.61;;;;
2021/04/23 00:20:40;;;;;;;6.55;2.85;;;;;;;0.78;46.47754;95801.11;;;;
2021/04/23 00:21:41;;;;;;;6.55;2.85;;;;;;;0.78;46.47754;95801.11;;;;
2021/04/23 00:22:42;;;;;;;6.55;2.85;;;;;;;0.78;46.47754;95801.11;;;;
2021/04/23 00:23:43;;;;;;;6.55;2.85;;;;;;;0.78;46.47754;95801.11;;;;
2021/04/23 00:24:44;;;;;;;6.55;2.85;;;;;;;0.78;46.47754;95801.11;;;;
2021/04/23 00:25:44;;;;;;;6.55;2.85;;;;;;;0.78;46.47754;95801.11;;;;
2021/04/23 00:26:45;;;;;;;6.55;2.85;;;;;;;0.78;46.47754;95801.11;;;;
2021/04/23 00:27:46;;;;;;;6.55;2.85;;;;;;;0.78;46.47754;95801.11;;;;
2021/04/23 00:28:46;;;;;;;6.55;2.85;;;;;;;0.78;46.47754;95801.11;;;;
2021/04/23 00:29:47;;;;;;;6.55;2.85;;;;;;;0.78;46.47754;95801.11;;;;
2021/04/23 00:30:48;;;;;;;4.8;2.8;;;;;;;0.66;46.63281;95802.42;;;;
2021/04/23 00:31:50;;;;;;;4.8;2.8;;;;;;;0.66;46.63281;95802.42;;;;
2021/04/23 00:32:53;;;;;;;4.8;2.8;;;;;;;0.66;46.63281;95802.42;;;;
2021/04/23 00:33:54;;;;;;;4.8;2.8;;;;;;;0.66;46.63281;95802.42;;;;
2021/04/23 00:34:55;;;;;;;4.8;2.8;;;;;;;0.66;46.63281;95802.42;;;;
2021/04/23 00:35:56;;;;;;;4.8;2.8;;;;;;;0.66;46.63281;95802.42;;;;
2021/04/23 00:36:57;;;;;;;4.8;2.8;;;;;;;0.66;46.63281;95802.42;;;;
2021/04/23 00:37:58;;;;;;;4.8;2.8;;;;;;;0.66;46.63281;95802.42;;;;
2021/04/23 00:39:00;;;;;;;4.8;2.8;;;;;;;0.66;46.63281;95802.42;;;;
2021/04/23 00:40:03;;;;;;;4.8;2.8;;;;;;;0.66;46.63281;95802.42;;;;
2021/04/23 00:41:06;;;;;;;4.8;2.8;;;;;;;0.66;46.63281;95802.42;;;;
2021/04/23 00:42:11;;;;;;;4.9;2.95;;;;;;;0.59;46.91992;95809.8;;;;
2021/04/23 00:43:12;;;;;;;4.9;2.95;;;;;;;0.59;46.91992;95809.8;;;;
2021/04/23 00:44:12;;;;;;;4.9;2.95;;;;;;;0.59;46.91992;95809.8;;;;
2021/04/23 00:45:13;;;;;;;4.9;2.95;;;;;;;0.59;46.91992;95809.8;;;;
2021/04/23 00:46:16;;;;;;;4.9;2.95;;;;;;;0.59;46.91992;95809.8;;;;
2021/04/23 00:47:16;;;;;;;4.9;2.95;;;;;;;0.59;46.91992;95809.8;;;;
2021/04/23 00:48:17;;;;;;;4.9;2.95;;;;;;;0.59;46.91992;95809.8;;;;
2021/04/23 00:49:19;;;;;;;4.9;2.95;;;;;;;0.59;46.91992;95809.8;;;;
2021/04/23 00:50:19;;;;;;;4.9;2.95;;;;;;;0.59;46.91992;95809.8;;;;
2021/04/23 00:51:32;;;;;;;4.9;2.95;;;;;;;0.59;46.91992;95809.8;;;;
2021/04/23 00:52:36;;;;;;;3.85;2.7;;;;;;;0.5;47.02637;95807.18;;;;
2021/04/23 00:53:36;;;;;;;3.85;2.7;;;;;;;0.5;47.02637;95807.18;;;;
2021/04/23 00:54:42;;;;;;;3.85;2.7;;;;;;;0.5;47.02637;95807.18;;;;
2021/04/23 00:55:42;;;;;;;3.85;2.7;;;;;;;0.5;47.02637;95807.18;;;;
2021/04/23 00:56:43;;;;;;;3.85;2.7;;;;;;;0.5;47.02637;95807.18;;;;
2021/04/23 00:57:44;;;;;;;3.85;2.7;;;;;;;0.5;47.02637;95807.18;;;;
2021/04/23 00:58:45;;;;;;;3.85;2.7;;;;;;;0.5;47.02637;95807.18;;;;
2021/04/23 00:59:47;;;;;;;3.85;2.7;;;;;;;0.5;47.02637;95807.18;;;;
2021/04/23 01:00:48;;;;;;;3.85;2.7;;;;;;;0.5;47.02637;95807.18;;;;
2021/04/23 01:01:52;;;;;;;3.85;2.7;;;;;;;0.5;47.02637;95807.18;;;;
2021/04/23 01:02:57;;;;;;;6.350001;2.95;;;;;;;0.39;47.35156;95806.17;;;;
2021/04/23 01:03:58;;;;;;;6.350001;2.95;;;;;;;0.39;47.35156;95806.17;;;;
2021/04/23 01:05:00;;;;;;;6.350001;2.95;;;;;;;0.39;47.35156;95806.17;;;;
2021/04/23 01:06:00;;;;;;;6.350001;2.95;;;;;;;0.39;47.35156;95806.17;;;;
2021/04/23 01:07:06;;;;;;;6.350001;2.95;;;;;;;0.39;47.35156;95806.17;;;;
2021/04/23 01:08:07;;;;;;;6.350001;2.95;;;;;;;0.39;47.35156;95806.17;;;;
2021/04/23 01:09:08;;;;;;;6.350001;2.95;;;;;;;0.39;47.35156;95806.17;;;;
2021/04/23 01:10:11;;;;;;;6.350001;2.95;;;;;;;0.39;47.35156;95806.17;;;;
2021/04/23 01:11:13;;;;;;;6.350001;2.95;;;;;;;0.39;47.35156;95806.17;;;;
2021/04/23 01:12:15;;;;;;;6.350001;2.95;;;;;;;0.39;47.35156;95806.17;;;;
2021/04/23 01:13:15;;;;;;;6.350001;2.95;;;;;;;0.39;47.35156;95806.17;;;;
2021/04/23 01:14:16;;;;;;;4.9;2.9;;;;;;;0.26;47.50586;95816.41;;;;
2021/04/23 01:15:17;;;;;;;4.9;2.9;;;;;;;0.26;47.50586;95816.41;;;;
2021/04/23 01:16:17;;;;;;;4.9;2.9;;;;;;;0.26;47.50586;95816.41;;;;
2021/04/23 01:17:21;;;;;;;4.9;2.9;;;;;;;0.26;47.50586;95816.41;;;;
2021/04/23 01:18:21;;;;;;;4.9;2.9;;;;;;;0.26;47.50586;95816.41;;;;
2021/04/23 01:19:22;;;;;;;4.9;2.9;;;;;;;0.26;47.50586;95816.41;;;;
2021/04/23 01:20:24;;;;;;;4.9;2.9;;;;;;;0.26;47.50586;95816.41;;;;
2021/04/23 01:21:26;;;;;;;4.9;2.9;;;;;;;0.26;47.50586;95816.41;;;;
2021/04/23 01:22:30;;;;;;;4.9;2.9;;;;;;;0.26;47.50586;95816.41;;;;
2021/04/23 01:23:32;;;;;;;4.9;2.9;;;;;;;0.26;47.50586;95816.41;;;;
2021/04/23 01:24:34;;;;;;;9.300001;2.9;;;;;;;0.13;47.77539;95805.4;;;;
2021/04/23 01:25:34;;;;;;;9.300001;2.9;;;;;;;0.13;47.77539;95805.4;;;;
2021/04/23 01:26:35;;;;;;;9.300001;2.9;;;;;;;0.13;47.77539;95805.4;;;;
2021/04/23 01:27:39;;;;;;;9.300001;2.9;;;;;;;0.13;47.77539;95805.4;;;;
2021/04/23 01:28:41;;;;;;;9.300001;2.9;;;;;;;0.13;47.77539;95805.4;;;;
2021/04/23 01:29:45;;;;;;;9.300001;2.9;;;;;;;0.13;47.77539;95805.4;;;;
2021/04/23 01:30:46;;;;;;;9.300001;2.9;;;;;;;0.13;47.77539;95805.4;;;;
2021/04/23 01:31:47;;;;;;;9.300001;2.9;;;;;;;0.13;47.77539;95805.4;;;;
2021/04/23 01:32:50;;;;;;;9.300001;2.9;;;;;;;0.13;47.77539;95805.4;;;;
2021/04/23 01:33:51;;;;;;;9.300001;2.9;;;;;;;0.13;47.77539;95805.4;;;;
2021/04/23 01:34:55;;;;;;;4.7;3.05;;;;;;;0.02;48.08887;95814.15;;;;
2021/04/23 01:35:55;;;;;;;4.7;3.05;;;;;;;0.02;48.08887;95814.15;;;;
2021/04/23 01:36:56;;;;;;;4.7;3.05;;;;;;;0.02;48.08887;95814.15;;;;
2021/04/23 01:37:58;;;;;;;4.7;3.05;;;;;;;0.02;48.08887;95814.15;;;;
2021/04/23 01:38:59;;;;;;;4.7;3.05;;;;;;;0.02;48.08887;95814.15;;;;
2021/04/23 01:40:00;;;;;;;4.7;3.05;;;;;;;0.02;48.08887;95814.15;;;;
2021/04/23 01:41:02;;;;;;;4.7;3.05;;;;;;;0.02;48.08887;95814.15;;;;
2021/04/23 01:42:03;;;;;;;4.7;3.05;;;;;;;0.02;48.08887;95814.15;;;;
2021/04/23 01:43:06;;;;;;;4.7;3.05;;;;;;;0.02;48.08887;95814.15;;;;
2021/04/23 01:44:06;;;;;;;4.7;3.05;;;;;;;0.02;48.08887;95814.15;;;;
2021/04/23 01:45:08;;;;;;;4.7;3.05;;;;;;;0.02;48.08887;95814.15;;;;
2021/04/23 01:46:11;;;;;;;5;2.6;;;;;;;-0.05;48.23926;95824.13;;;;
2021/04/23 01:47:12;;;;;;;5;2.6;;;;;;;-0.05;48.23926;95824.13;;;;
2021/04/23 01:48:13;;;;;;;5;2.6;;;;;;;-0.05;48.23926;95824.13;;;;
2021/04/23 01:49:16;;;;;;;5;2.6;;;;;;;-0.05;48.23926;95824.13;;;;
2021/04/23 01:50:20;;;;;;;5;2.6;;;;;;;-0.05;48.23926;95824.13;;;;
2021/04/23 01:51:21;;;;;;;5;2.6;;;;;;;-0.05;48.23926;95824.13;;;;
2021/04/23 01:52:22;;;;;;;5;2.6;;;;;;;-0.05;48.23926;95824.13;;;;
2021/04/23 01:53:23;;;;;;;5;2.6;;;;;;;-0.05;48.23926;95824.13;;;;
2021/04/23 01:54:24;;;;;;;5;2.6;;;;;;;-0.05;48.23926;95824.13;;;;
2021/04/23 01:55:26;;;;;;;5;2.6;;;;;;;-0.05;48.23926;95824.13;;;;
2021/04/23 01:56:27;;;;;;;5.650001;3.1;;;;;;;-0.15;48.61621;95831.81;;;;
2021/04/23 01:57:28;;;;;;;5.650001;3.1;;;;;;;-0.15;48.61621;95831.81;;;;
2021/04/23 01:58:28;;;;;;;5.650001;3.1;;;;;;;-0.15;48.61621;95831.81;;;;
2021/04/23 01:59:30;;;;;;;5.650001;3.1;;;;;;;-0.15;48.61621;95831.81;;;;
2021/04/23 02:00:32;;;;;;;5.650001;3.1;;;;;;;-0.15;48.61621;95831.81;;;;
2021/04/23 02:01:37;;;;;;;5.650001;3.1;;;;;;;-0.15;48.61621;95831.81;;;;
2021/04/23 02:02:38;;;;;;;5.650001;3.1;;;;;;;-0.15;48.61621;95831.81;;;;
2021/04/23 02:03:39;;;;;;;5.650001;3.1;;;;;;;-0.15;48.61621;95831.81;;;;
2021/04/23 02:04:45;;;;;;;5.650001;3.1;;;;;;;-0.15;48.61621;95831.81;;;;
2021/04/23 02:05:48;;;;;;;5.650001;3.1;;;;;;;-0.15;48.61621;95831.81;;;;
2021/04/23 02:06:50;;;;;;;6.7;3.45;;;;;;;-0.23;48.75391;95831.33;;;;
2021/04/23 02:07:52;;;;;;;6.7;3.45;;;;;;;-0.23;48.75391;95831.33;;;;
2021/04/23 02:08:52;;;;;;;6.7;3.45;;;;;;;-0.23;48.75391;95831.33;;;;
2021/04/23 02:09:53;;;;;;;6.7;3.45;;;;;;;-0.23;48.75391;95831.33;;;;
2021/04/23 02:10:54;;;;;;;6.7;3.45;;;;;;;-0.23;48.75391;95831.33;;;;
2021/04/23 02:11:58;;;;;;;6.7;3.45;;;;;;;-0.23;48.75391;95831.33;;;;
2021/04/23 02:12:59;;;;;;;6.7;3.45;;;;;;;-0.23;48.75391;95831.33;;;;
2021/04/23 02:14:01;;;;;;;6.7;3.45;;;;;;;-0.23;48.75391;95831.33;;;;
2021/04/23 02:15:03;;;;;;;6.7;3.45;;;;;;;-0.23;48.75391;95831.33;;;;
2021/04/23 02:16:06;;;;;;;6.7;3.45;;;;;;;-0.23;48.75391;95831.33;;;;
2021/04/23 02:17:09;;;;;;;6.7;3.45;;;;;;;-0.23;48.75391;95831.33;;;;
2021/04/23 02:18:09;;;;;;;8.5;3.55;;;;;;;-0.28;48.92676;95829.22;;;;
2021/04/23 02:19:10;;;;;;;8.5;3.55;;;;;;;-0.28;48.92676;95829.22;;;;
2021/04/23 02:20:13;;;;;;;8.5;3.55;;;;;;;-0.28;48.92676;95829.22;;;;
2021/04/23 02:21:17;;;;;;;8.5;3.55;;;;;;;-0.28;48.92676;95829.22;;;;
2021/04/23 02:22:17;;;;;;;8.5;3.55;;;;;;;-0.28;48.92676;95829.22;;;;
2021/04/23 02:23:19;;;;;;;8.5;3.55;;;;;;;-0.28;48.92676;95829.22;;;;
2021/04/23 02:24:20;;;;;;;8.5;3.55;;;;;;;-0.28;48.92676;95829.22;;;;
2021/04/23 02:25:21;;;;;;;8.5;3.55;;;;;;;-0.28;48.92676;95829.22;;;;
2021/04/23 02:26:22;;;;;;;8.5;3.55;;;;;;;-0.28;48.92676;95829.22;;;;
2021/04/23 02:27:23;;;;;;;8.5;3.55;;;;;;;-0.28;48.92676;95829.22;;;;
2021/04/23 02:28:24;;;;;;;6.5;2.95;;;;;;;-0.28;49.28418;95829.22;;;;
2021/04/23 02:29:25;;;;;;;6.5;2.95;;;;;;;-0.28;49.28418;95829.22;;;;
2021/04/23 02:30:26;;;;;;;6.5;2.95;;;;;;;-0.28;49.28418;95829.22;;;;
2021/04/23 02:31:32;;;;;;;6.5;2.95;;;;;;;-0.28;49.28418;95829.22;;;;
2021/04/23 02:32:35;;;;;;;6.5;2.95;;;;;;;-0.28;49.28418;95829.22;;;;
2021/04/23 02:33:35;;;;;;;6.5;2.95;;;;;;;-0.28;49.28418;95829.22;;;;
2021/04/23 02:34:36;;;;;;;6.5;2.95;;;;;;;-0.28;49.28418;95829.22;;;;
2021/04/23 02:35:37;;;;;;;6.5;2.95;;;;;;;-0.28;49.28418;95829.22;;;;
2021/04/23 02:36:39;;;;;;;6.5;2.95;;;;;;;-0.28;49.28418;95829.22;;;;
2021/04/23 02:37:41;;;;;;;6.5;2.95;;;;;;;-0.28;49.28418;95829.22;;;;
2021/04/23 02:38:43;;;;;;;5.2;3.1;;;;;;;-0.35;49.23438;95831.27;;;;
2021/04/23 02:39:44;;;;;;;5.2;3.1;;;;;;;-0.35;49.23438;95831.27;;;;
2021/04/23 02:40:46;;;;;;;5.2;3.1;;;;;;;-0.35;49.23438;95831.27;;;;
2021/04/23 02:41:47;;;;;;;5.2;3.1;;;;;;;-0.35;49.23438;95831.27;;;;
2021/04/23 02:42:51;;;;;;;5.2;3.1;;;;;;;-0.35;49.23438;95831.27;;;;
2021/04/23 02:43:54;;;;;;;5.2;3.1;;;;;;;-0.35;49.23438;95831.27;;;;
2021/04/23 02:44:56;;;;;;;5.2;3.1;;;;;;;-0.35;49.23438;95831.27;;;;
2021/04/23 02:45:58;;;;;;;5.2;3.1;;;;;;;-0.35;49.23438;95831.27;;;;
2021/04/23 02:47:00;;;;;;;5.2;3.1;;;;;;;-0.35;49.23438;95831.27;;;;
2021/04/23 02:48:00;;;;;;;5.2;3.1;;;;;;;-0.35;49.23438;95831.27;;;;
2021/04/23 02:49:02;;;;;;;5.2;3.1;;;;;;;-0.35;49.23438;95831.27;;;;
2021/04/23 02:50:04;;;;;;;6.149999;3.1;;;;;;;-0.46;49.53613;95829.28;;;;
2021/04/23 02:51:07;;;;;;;6.149999;3.1;;;;;;;-0.46;49.53613;95829.28;;;;
2021/04/23 02:52:13;;;;;;;6.149999;3.1;;;;;;;-0.46;49.53613;95829.28;;;;
2021/04/23 02:53:13;;;;;;;6.149999;3.1;;;;;;;-0.46;49.53613;95829.28;;;;
2021/04/23 02:54:15;;;;;;;6.149999;3.1;;;;;;;-0.46;49.53613;95829.28;;;;
2021/04/23 02:55:17;;;;;;;6.149999;3.1;;;;;;;-0.46;49.53613;95829.28;;;;
2021/04/23 02:56:18;;;;;;;6.149999;3.1;;;;;;;-0.46;49.53613;95829.28;;;;
2021/04/23 02:57:22;;;;;;;6.149999;3.1;;;;;;;-0.46;49.53613;95829.28;;;;
2021/04/23 02:58:22;;;;;;;6.149999;3.1;;;;;;;-0.46;49.53613;95829.28;;;;
2021/04/23 02:59:23;;;;;;;6.149999;3.1;;;;;;;-0.46;49.53613;95829.28;;;;
2021/04/23 03:00:24;;;;;;;6;3.149999;;;;;;;-0.51;49.73047;95830.67;;;;
2021/04/23 03:01:28;;;;;;;6;3.149999;;;;;;;-0.51;49.73047;95830.67;;;;
2021/04/23 03:02:32;;;;;;;6;3.149999;;;;;;;-0.51;49.73047;95830.67;;;;
2021/04/23 03:03:33;;;;;;;6;3.149999;;;;;;;-0.51;49.73047;95830.67;;;;
2021/04/23 03:04:34;;;;;;;6;3.149999;;;;;;;-0.51;49.73047;95830.67;;;;
2021/04/23 03:05:35;;;;;;;6;3.149999;;;;;;;-0.51;49.73047;95830.67;;;;
2021/04/23 03:06:37;;;;;;;6;3.149999;;;;;;;-0.51;49.73047;95830.67;;;;
2021/04/23 03:07:37;;;;;;;6;3.149999;;;;;;;-0.51;49.73047;95830.67;;;;
2021/04/23 03:08:38;;;;;;;6;3.149999;;;;;;;-0.51;49.73047;95830.67;;;;
2021/04/23 03:09:39;;;;;;;6;3.149999;;;;;;;-0.51;49.73047;95830.67;;;;
2021/04/23 03:10:39;;;;;;;6.35;3.15;;;;;;;-0.59;49.84668;95837.23;;;;
2021/04/23 03:11:45;;;;;;;6.35;3.15;;;;;;;-0.59;49.84668;95837.23;;;;
2021/04/23 03:12:47;;;;;;;6.35;3.15;;;;;;;-0.59;49.84668;95837.23;;;;
2021/04/23 03:13:47;;;;;;;6.35;3.15;;;;;;;-0.59;49.84668;95837.23;;;;
2021/04/23 03:14:51;;;;;;;6.35;3.15;;;;;;;-0.59;49.84668;95837.23;;;;
2021/04/23 03:15:51;;;;;;;6.35;3.15;;;;;;;-0.59;49.84668;95837.23;;;;
2021/04/23 03:16:54;;;;;;;6.35;3.15;;;;;;;-0.59;49.84668;95837.23;;;;
2021/04/23 03:17:55;;;;;;;6.35;3.15;;;;;;;-0.59;49.84668;95837.23;;;;
2021/04/23 03:18:55;;;;;;;6.35;3.15;;;;;;;-0.59;49.84668;95837.23;;;;
2021/04/23 03:19:56;;;;;;;6.35;3.15;;;;;;;-0.59;49.84668;95837.23;;;;
2021/04/23 03:20:57;;;;;;;6.35;3.15;;;;;;;-0.59;49.84668;95837.23;;;;
2021/04/23 03:21:59;;;;;;;8.199999;3.3;;;;;;;-0.76;50.37305;95835.46;;;;
2021/04/23 03:23:00;;;;;;;8.199999;3.3;;;;;;;-0.76;50.37305;95835.46;;;;
2021/04/23 03:24:01;;;;;;;8.199999;3.3;;;;;;;-0.76;50.37305;95835.46;;;;
2021/04/23 03:25:02;;;;;;;8.199999;3.3;;;;;;;-0.76;50.37305;95835.46;;;;
2021/04/23 03:26:03;;;;;;;8.199999;3.3;;;;;;;-0.76;50.37305;95835.46;;;;
2021/04/23 03:27:06;;;;;;;8.199999;3.3;;;;;;;-0.76;50.37305;95835.46;;;;
2021/04/23 03:28:07;;;;;;;8.199999;3.3;;;;;;;-0.76;50.37305;95835.46;;;;
2021/04/23 03:29:08;;;;;;;8.199999;3.3;;;;;;;-0.76;50.37305;95835.46;;;;
2021/04/23 03:30:10;;;;;;;8.199999;3.3;;;;;;;-0.76;50.37305;95835.46;;;;
2021/04/23 03:31:16;;;;;;;8.199999;3.3;;;;;;;-0.76;50.37305;95835.46;;;;
2021/04/23 03:32:17;;;;;;;9.799999;3.15;;;;;;;-0.87;50.82129;95831.71;;;;
2021/04/23 03:33:17;;;;;;;9.799999;3.15;;;;;;;-0.87;50.82129;95831.71;;;;
2021/04/23 03:34:18;;;;;;;9.799999;3.15;;;;;;;-0.87;50.82129;95831.71;;;;
2021/04/23 03:35:22;;;;;;;9.799999;3.15;;;;;;;-0.87;50.82129;95831.71;;;;
2021/04/23 03:36:23;;;;;;;9.799999;3.15;;;;;;;-0.87;50.82129;95831.71;;;;
2021/04/23 03:37:24;;;;;;;9.799999;3.15;;;;;;;-0.87;50.82129;95831.71;;;;
2021/04/23 03:38:25;;;;;;;9.799999;3.15;;;;;;;-0.87;50.82129;95831.71;;;;
2021/04/23 03:39:28;;;;;;;9.799999;3.15;;;;;;;-0.87;50.82129;95831.71;;;;
2021/04/23 03:40:29;;;;;;;9.799999;3.15;;;;;;;-0.87;50.82129;95831.71;;;;
2021/04/23 03:41:31;;;;;;;9.799999;3.15;;;;;;;-0.87;50.82129;95831.71;;;;
2021/04/23 03:42:33;;;;;;;9.799999;3.15;;;;;;;-0.87;50.82129;95831.71;;;;
2021/04/23 03:43:34;;;;;;;8.1;3.3;;;;;;;-0.94;50.85449;95840.36;;;;
2021/04/23 03:44:35;;;;;;;8.1;3.3;;;;;;;-0.94;50.85449;95840.36;;;;
2021/04/23 03:45:35;;;;;;;8.1;3.3;;;;;;;-0.94;50.85449;95840.36;;;;
2021/04/23 03:46:37;;;;;;;8.1;3.3;;;;;;;-0.94;50.85449;95840.36;;;;
2021/04/23 03:47:38;;;;;;;8.1;3.3;;;;;;;-0.94;50.85449;95840.36;;;;
2021/04/23 03:48:39;;;;;;;8.1;3.3;;;;;;;-0.94;50.85449;95840.36;;;;
2021/04/23 03:49:40;;;;;;;8.1;3.3;;;;;;;-0.94;50.85449;95840.36;;;;
2021/04/23 03:50:41;;;;;;;8.1;3.3;;;;;;;-0.94;50.85449;95840.36;;;;
2021/04/23 03:51:44;;;;;;;8.1;3.3;;;;;;;-0.94;50.85449;95840.36;;;;
2021/04/23 03:52:44;;;;;;;8.1;3.3;;;;;;;-0.94;50.85449;95840.36;;;;
2021/04/23 03:53:45;;;;;;;6.65;3.5;;;;;;;-0.98;50.8916;95841.71;;;;
2021/04/23 03:54:47;;;;;;;6.65;3.5;;;;;;;-0.98;50.8916;95841.71;;;;
2021/04/23 03:55:48;;;;;;;6.65;3.5;;;;;;;-0.98;50.8916;95841.71;;;;
2021/04/23 03:56:52;;;;;;;6.65;3.5;;;;;;;-0.98;50.8916;95841.71;;;;
2021/04/23 03:57:53;;;;;;;6.65;3.5;;;;;;;-0.98;50.8916;95841.71;;;;
2021/04/23 03:58:54;;;;;;;6.65;3.5;;;;;;;-0.98;50.8916;95841.71;;;;
2021/04/23 03:59:55;;;;;;;6.65;3.5;;;;;;;-0.98;50.8916;95841.71;;;;
2021/04/23 04:00:55;;;;;;;6.65;3.5;;;;;;;-0.98;50.8916;95841.71;;;;
2021/04/23 04:02:00;;;;;;;6.65;3.5;;;;;;;-0.98;50.8916;95841.71;;;;
2021/04/23 04:03:00;;;;;;;6.65;3.5;;;;;;;-0.98;50.8916;95841.71;;;;
2021/04/23 04:04:02;;;;;;;9.650001;3.45;;;;;;;-1.04;51.02051;95848.95;;;;
2021/04/23 04:05:03;;;;;;;9.650001;3.45;;;;;;;-1.04;51.02051;95848.95;;;;
2021/04/23 04:06:06;;;;;;;9.650001;3.45;;;;;;;-1.04;51.02051;95848.95;;;;
2021/04/23 04:07:07;;;;;;;9.650001;3.45;;;;;;;-1.04;51.02051;95848.95;;;;
2021/04/23 04:08:08;;;;;;;9.650001;3.45;;;;;;;-1.04;51.02051;95848.95;;;;
2021/04/23 04:09:09;;;;;;;9.650001;3.45;;;;;;;-1.04;51.02051;95848.95;;;;
2021/04/23 04:10:09;;;;;;;9.650001;3.45;;;;;;;-1.04;51.02051;95848.95;;;;
2021/04/23 04:11:12;;;;;;;9.650001;3.45;;;;;;;-1.04;51.02051;95848.95;;;;
2021/04/23 04:12:13;;;;;;;9.650001;3.45;;;;;;;-1.04;51.02051;95848.95;;;;
2021/04/23 04:13:13;;;;;;;9.650001;3.45;;;;;;;-1.04;51.02051;95848.95;;;;
2021/04/23 04:14:15;;;;;;;9.650001;3.45;;;;;;;-1.04;51.02051;95848.95;;;;
2021/04/23 04:15:15;;;;;;;6.849999;3.35;;;;;;;-1.11;51.26563;95852.2;;;;
2021/04/23 04:16:17;;;;;;;6.849999;3.35;;;;;;;-1.11;51.26563;95852.2;;;;
2021/04/23 04:17:18;;;;;;;6.849999;3.35;;;;;;;-1.11;51.26563;95852.2;;;;
2021/04/23 04:18:19;;;;;;;6.849999;3.35;;;;;;;-1.11;51.26563;95852.2;;;;
2021/04/23 04:19:21;;;;;;;6.849999;3.35;;;;;;;-1.11;51.26563;95852.2;;;;
2021/04/23 04:20:21;;;;;;;6.849999;3.35;;;;;;;-1.11;51.26563;95852.2;;;;
2021/04/23 04:21:24;;;;;;;6.849999;3.35;;;;;;;-1.11;51.26563;95852.2;;;;
2021/04/23 04:22:25;;;;;;;6.849999;3.35;;;;;;;-1.11;51.26563;95852.2;;;;
2021/04/23 04:23:26;;;;;;;6.849999;3.35;;;;;;;-1.11;51.26563;95852.2;;;;
2021/04/23 04:24:27;;;;;;;6.849999;3.35;;;;;;;-1.11;51.26563;95852.2;;;;
2021/04/23 04:25:27;;;;;;;7.349999;4.2;;;;;;;-1;51.39355;95855.11;;;;
2021/04/23 04:26:31;;;;;;;7.349999;4.2;;;;;;;-1;51.39355;95855.11;;;;
2021/04/23 04:27:31;;;;;;;7.349999;4.2;;;;;;;-1;51.39355;95855.11;;;;
2021/04/23 04:28:32;;;;;;;7.349999;4.2;;;;;;;-1;51.39355;95855.11;;;;
2021/04/23 04:29:33;;;;;;;7.349999;4.2;;;;;;;-1;51.39355;95855.11;;;;
2021/04/23 04:30:33;;;;;;;7.349999;4.2;;;;;;;-1;51.39355;95855.11;;;;
2021/04/23 04:31:35;;;;;;;7.349999;4.2;;;;;;;-1;51.39355;95855.11;;;;
2021/04/23 04:32:35;;;;;;;7.349999;4.2;;;;;;;-1;51.39355;95855.11;;;;
2021/04/23 04:33:36;;;;;;;7.349999;4.2;;;;;;;-1;51.39355;95855.11;;;;
2021/04/23 04:34:37;;;;;;;7.349999;4.2;;;;;;;-1;51.39355;95855.11;;;;
2021/04/23 04:35:38;;;;;;;7.349999;4.2;;;;;;;-1;51.39355;95855.11;;;;
2021/04/23 04:36:40;;;;;;;10.1;4.100001;;;;;;;-0.85;51.23242;95872.63;;;;
2021/04/23 04:37:41;;;;;;;10.1;4.100001;;;;;;;-0.85;51.23242;95872.63;;;;
2021/04/23 04:38:41;;;;;;;10.1;4.100001;;;;;;;-0.85;51.23242;95872.63;;;;
2021/04/23 04:39:42;;;;;;;10.1;4.100001;;;;;;;-0.85;51.23242;95872.63;;;;
2021/04/23 04:40:43;;;;;;;10.1;4.100001;;;;;;;-0.85;51.23242;95872.63;;;;
2021/04/23 04:41:47;;;;;;;10.1;4.100001;;;;;;;-0.85;51.23242;95872.63;;;;
2021/04/23 04:42:47;;;;;;;10.1;4.100001;;;;;;;-0.85;51.23242;95872.63;;;;
2021/04/23 04:43:48;;;;;;;10.1;4.100001;;;;;;;-0.85;51.23242;95872.63;;;;
2021/04/23 04:44:49;;;;;;;10.1;4.100001;;;;;;;-0.85;51.23242;95872.63;;;;
2021/04/23 04:45:50;;;;;;;10.1;4.100001;;;;;;;-0.85;51.23242;95872.63;;;;
2021/04/23 04:46:51;;;;;;;8.650002;4.1;;;;;;;-0.74;51.4043;95876.28;;;;
2021/04/23 04:47:51;;;;;;;8.650002;4.1;;;;;;;-0.74;51.4043;95876.28;;;;
2021/04/23 04:48:53;;;;;;;8.650002;4.1;;;;;;;-0.74;51.4043;95876.28;;;;
2021/04/23 04:49:53;;;;;;;8.650002;4.1;;;;;;;-0.74;51.4043;95876.28;;;;
2021/04/23 04:50:54;;;;;;;8.650002;4.1;;;;;;;-0.74;51.4043;95876.28;;;;
2021/04/23 04:51:56;;;;;;;8.650002;4.1;;;;;;;-0.74;51.4043;95876.28;;;;
2021/04/23 04:52:57;;;;;;;8.650002;4.1;;;;;;;-0.74;51.4043;95876.28;;;;
2021/04/23 04:54:00;;;;;;;8.650002;4.1;;;;;;;-0.74;51.4043;95876.28;;;;
2021/04/23 04:55:02;;;;;;;8.650002;4.1;;;;;;;-0.74;51.4043;95876.28;;;;
2021/04/23 04:56:04;;;;;;;8.650002;4.1;;;;;;;-0.74;51.4043;95876.28;;;;
2021/04/23 04:57:04;;;;;;;8.650002;4.1;;;;;;;-0.74;51.4043;95876.28;;;;
2021/04/23 04:58:06;;;;;;;11;4.5;;;;;;;-0.59;51.55762;95895.14;;;;
2021/04/23 04:59:08;;;;;;;11;4.5;;;;;;;-0.59;51.55762;95895.14;;;;
2021/04/23 05:00:08;;;;;;;11;4.5;;;;;;;-0.59;51.55762;95895.14;;;;
2021/04/23 05:01:11;;;;;;;11;4.5;;;;;;;-0.59;51.55762;95895.14;;;;
2021/04/23 05:02:12;;;;;;;11;4.5;;;;;;;-0.59;51.55762;95895.14;;;;
2021/04/23 05:03:15;;;;;;;11;4.5;;;;;;;-0.59;51.55762;95895.14;;;;
2021/04/23 05:04:16;;;;;;;11;4.5;;;;;;;-0.59;51.55762;95895.14;;;;
2021/04/23 05:05:16;;;;;;;11;4.5;;;;;;;-0.59;51.55762;95895.14;;;;
2021/04/23 05:06:18;;;;;;;11;4.5;;;;;;;-0.59;51.55762;95895.14;;;;
2021/04/23 05:07:19;;;;;;;11;4.5;;;;;;;-0.59;51.55762;95895.14;;;;
2021/04/23 05:08:20;;;;;;;7.6;4.450001;;;;;;;-0.39;51.42383;95904.6;;;;
2021/04/23 05:09:20;;;;;;;7.6;4.450001;;;;;;;-0.39;51.42383;95904.6;;;;
2021/04/23 05:10:21;;;;;;;7.6;4.450001;;;;;;;-0.39;51.42383;95904.6;;;;
2021/04/23 05:11:22;;;;;;;7.6;4.450001;;;;;;;-0.39;51.42383;95904.6;;;;
2021/04/23 05:12:22;;;;;;;7.6;4.450001;;;;;;;-0.39;51.42383;95904.6;;;;
2021/04/23 05:13:23;;;;;;;7.6;4.450001;;;;;;;-0.39;51.42383;95904.6;;;;
2021/04/23 05:14:24;;;;;;;7.6;4.450001;;;;;;;-0.39;51.42383;95904.6;;;;
2021/04/23 05:15:24;;;;;;;7.6;4.450001;;;;;;;-0.39;51.42383;95904.6;;;;
2021/04/23 05:16:26;;;;;;;7.6;4.450001;;;;;;;-0.39;51.42383;95904.6;;;;
2021/04/23 05:17:26;;;;;;;7.6;4.450001;;;;;;;-0.39;51.42383;95904.6;;;;
2021/04/23 05:18:27;;;;;;;7.6;4.450001;;;;;;;-0.39;51.42383;95904.6;;;;
2021/04/23 05:19:27;;;;;;;9.15;5.249999;;;;;;;-0.07;51.58887;95915.01;;;;
2021/04/23 05:20:28;;;;;;;9.15;5.249999;;;;;;;-0.07;51.58887;95915.01;;;;
2021/04/23 05:21:29;;;;;;;9.15;5.249999;;;;;;;-0.07;51.58887;95915.01;;;;
2021/04/23 05:22:30;;;;;;;9.15;5.249999;;;;;;;-0.07;51.58887;95915.01;;;;
2021/04/23 05:23:31;;;;;;;9.15;5.249999;;;;;;;-0.07;51.58887;95915.01;;;;
2021/04/23 05:24:32;;;;;;;9.15;5.249999;;;;;;;-0.07;51.58887;95915.01;;;;
2021/04/23 05:25:33;;;;;;;9.15;5.249999;;;;;;;-0.07;51.58887;95915.01;;;;
2021/04/23 05:26:34;;;;;;;9.15;5.249999;;;;;;;-0.07;51.58887;95915.01;;;;
2021/04/23 05:27:35;;;;;;;9.15;5.249999;;;;;;;-0.07;51.58887;95915.01;;;;
2021/04/23 05:28:35;;;;;;;9.15;5.249999;;;;;;;-0.07;51.58887;95915.01;;;;
2021/04/23 05:29:36;;;;;;;13.2;5.349999;;;;;;;0.31;51.57324;95927.45;;;;
2021/04/23 05:30:37;;;;;;;13.2;5.349999;;;;;;;0.31;51.57324;95927.45;;;;
2021/04/23 05:31:38;;;;;;;13.2;5.349999;;;;;;;0.31;51.57324;95927.45;;;;
2021/04/23 05:32:39;;;;;;;13.2;5.349999;;;;;;;0.31;51.57324;95927.45;;;;
2021/04/23 05:33:40;;;;;;;13.2;5.349999;;;;;;;0.31;51.57324;95927.45;;;;
2021/04/23 05:34:41;;;;;;;13.2;5.349999;;;;;;;0.31;51.57324;95927.45;;;;
2021/04/23 05:35:41;;;;;;;13.2;5.349999;;;;;;;0.31;51.57324;95927.45;;;;
2021/04/23 05:36:45;;;;;;;13.2;5.349999;;;;;;;0.31;51.57324;95927.45;;;;
2021/04/23 05:37:45;;;;;;;13.2;5.349999;;;;;;;0.31;51.57324;95927.45;;;;
2021/04/23 05:38:47;;;;;;;13.2;5.349999;;;;;;;0.31;51.57324;95927.45;;;;
2021/04/23 05:39:48;;;;;;;13.2;5.349999;;;;;;;0.31;51.57324;95927.45;;;;
2021/04/23 05:40:48;;;;;;;8.200001;5;;;;;;;0.77;51.66992;95936.81;;;;
2021/04/23 05:41:49;;;;;;;8.200001;5;;;;;;;0.77;51.66992;95936.81;;;;
2021/04/23 05:42:50;;;;;;;8.200001;5;;;;;;;0.77;51.66992;95936.81;;;;
2021/04/23 05:43:52;;;;;;;8.200001;5;;;;;;;0.77;51.66992;95936.81;;;;
2021/04/23 05:44:55;;;;;;;8.200001;5;;;;;;;0.77;51.66992;95936.81;;;;
2021/04/23 05:45:56;;;;;;;8.200001;5;;;;;;;0.77;51.66992;95936.81;;;;
2021/04/23 05:46:57;;;;;;;8.200001;5;;;;;;;0.77;51.66992;95936.81;;;;